Annandale, PA

1:28 PM EST on January 26, 2015 (GMT -0500)
Grove City | Change Station
CLOSE
Current Station
Personal Weather Station
Location: Grove City, PA
Elevation: 1250 ft
Nearby Weather Stations

Elev 1250 ft 41.12 °N, 80.11 °W | Updated 20 seconds ago

Snow
Snow
26.5 °F
Feels Like 26 °F
N
1.5
Wind Variable Wind from NE
Gusts 3.5 mph

Today
High -- | Low -- °F
--% Chance of Precip.
Yesterday
High -- | Low -- °F
Precip. -- in
7:36 AM 5:28 PM
Waxing Crescent, 45% visible
Pressure 29.73 in
Visibility 1.2 miles
Clouds Overcast 2500 ft
Windchill 26 °F
Dew Point 23 °F
Humidity 87%
Rainfall 0.00 in
Snow Depth Not available.
UV 1 out of 12
Pollen .10 out of 12
Air Quality Not available.
Flu Activity Not available.
METAR KFKL 261815Z AUTO 02007KT 1 1/4SM OVC025 M06/M09 A2973 RMK AO1

More Conditions Fewer Conditions

Pressure 29.73 in
Visibility 1.2 miles
Clouds Overcast 2500 ft
Windchill 26 °F
Dew Point 23 °F
Humidity 87%
Rainfall 0.00 in
Snow Depth Not available.
UV 1 out of 12
Pollen .10 out of 12
Air Quality Not available.
Flu Activity Not available.
METAR KFKL 261815Z AUTO 02007KT 1 1/4SM OVC025 M06/M09 A2973 RMK AO1

More Conditions Fewer Conditions

10-Day Weather Forecast

Almanac

Astronomy

Jan. 26, 2015 Rise Set
Actual Time
Civil Twilight
Nautical Twilight
Astronomical Twilight
Moon
Length of Visible Light
Length of Day
Tomorrow will be .
, % of the Moon is Illuminated

Today's Extremes

State Highs State Lows

Community

WunderPhotos

Upload Photos

1,790,308 photos uploaded!

WunderBlogs® & News

Nearby

Air Quality

  Air Quality AQ Index Pollutant
Not available.

Snow Depth

Station Depth Elevation

Earthquake Activity

City Distance Mag. Time & Date
Minimum magnitude displayed is 2.5.

Coastal Water Temperatures

Place Temperature

Nearby Weather Stations